createdAt,value
2023-04-02T00:00:14.846Z,0.00
2023-04-02T00:01:14.749Z,0.00
2023-04-02T00:02:14.763Z,0.00
2023-04-02T00:03:14.741Z,0.00
2023-04-02T00:04:14.864Z,0.00
2023-04-02T00:05:14.605Z,0.00
2023-04-02T00:06:14.539Z,0.00
2023-04-02T00:07:14.507Z,0.00
2023-04-02T00:08:14.448Z,0.00
2023-04-02T00:09:14.429Z,0.00
2023-04-02T00:10:14.375Z,0.00
2023-04-02T00:11:14.332Z,0.00
2023-04-02T00:12:14.286Z,0.00
2023-04-02T00:13:14.270Z,0.00
2023-04-02T00:14:14.202Z,0.00
2023-04-02T00:15:14.197Z,0.00
2023-04-02T00:16:14.143Z,0.00
2023-04-02T00:17:14.094Z,0.00
2023-04-02T00:18:14.039Z,0.00
2023-04-02T00:19:14.495Z,0.00
2023-04-02T00:20:13.950Z,0.00
2023-04-02T00:21:13.924Z,0.00
2023-04-02T00:22:13.872Z,0.00
2023-04-02T00:23:13.837Z,0.00
2023-04-02T00:24:13.799Z,0.00
2023-04-02T00:25:13.750Z,0.00
2023-04-02T00:26:13.717Z,0.00
2023-04-02T00:27:13.672Z,0.00
2023-04-02T00:28:13.600Z,0.00
2023-04-02T00:29:13.584Z,0.00
2023-04-02T00:30:13.549Z,0.00
2023-04-02T00:31:13.480Z,0.00
2023-04-02T00:32:13.524Z,0.00
2023-04-02T00:33:13.446Z,0.00
2023-04-02T00:34:13.354Z,0.00
2023-04-02T00:35:13.323Z,0.00
2023-04-02T00:36:13.289Z,0.00
2023-04-02T00:37:13.235Z,0.00
2023-04-02T00:38:13.203Z,0.00
2023-04-02T00:39:13.163Z,0.00
2023-04-02T00:40:13.100Z,0.00
2023-04-02T00:41:13.061Z,0.00
2023-04-02T00:42:13.024Z,0.00
2023-04-02T00:43:12.997Z,0.00
2023-04-02T00:44:12.949Z,0.00
2023-04-02T00:45:12.908Z,0.00
2023-04-02T00:46:12.874Z,0.00
2023-04-02T00:47:12.807Z,0.00
2023-04-02T00:48:12.764Z,0.00
2023-04-02T00:49:12.735Z,0.00
2023-04-02T00:50:12.697Z,0.00
2023-04-02T00:51:12.636Z,0.00
2023-04-02T00:52:12.610Z,0.00
2023-04-02T00:53:12.570Z,0.00
2023-04-02T00:54:12.520Z,0.00
2023-04-02T00:55:12.504Z,0.00
2023-04-02T00:56:12.431Z,0.00
2023-04-02T00:57:12.421Z,0.00
2023-04-02T00:58:12.351Z,0.00
2023-04-02T00:59:12.301Z,0.00
2023-04-02T01:00:12.258Z,0.00
2023-04-02T01:01:12.247Z,0.00
2023-04-02T01:02:12.213Z,0.00
2023-04-02T01:03:12.216Z,0.00
2023-04-02T01:04:12.102Z,0.00
2023-04-02T01:05:12.061Z,0.00
2023-04-02T01:06:12.019Z,0.00
2023-04-02T01:07:11.998Z,0.00
2023-04-02T01:08:11.947Z,0.00
2023-04-02T01:09:11.891Z,0.00
2023-04-02T01:10:11.842Z,0.00
2023-04-02T01:11:11.805Z,0.00
2023-04-02T01:12:11.756Z,0.00
2023-04-02T01:13:11.721Z,0.00
2023-04-02T01:14:11.701Z,0.00
2023-04-02T01:15:11.626Z,0.00
2023-04-02T01:16:11.652Z,0.00
2023-04-02T01:17:11.529Z,0.00
2023-04-02T01:18:11.492Z,0.00
2023-04-02T01:19:11.473Z,0.00
2023-04-02T01:20:11.407Z,0.00
2023-04-02T01:21:11.397Z,0.00
2023-04-02T01:22:11.335Z,0.00
2023-04-02T01:23:11.315Z,0.00
2023-04-02T01:24:11.246Z,0.00
2023-04-02T01:25:11.205Z,0.00
2023-04-02T01:26:11.165Z,0.00
2023-04-02T01:27:20.791Z,0.00
2023-04-02T01:28:11.069Z,0.00
2023-04-02T01:29:11.031Z,0.00
2023-04-02T01:30:10.981Z,0.00
2023-04-02T01:31:11.762Z,0.00
2023-04-02T01:32:10.915Z,0.00
2023-04-02T01:33:10.853Z,0.00
2023-04-02T01:34:10.827Z,0.00
2023-04-02T01:35:10.771Z,0.00
2023-04-02T01:36:10.758Z,0.00
2023-04-02T01:37:10.685Z,0.00
2023-04-02T01:38:10.672Z,0.00
2023-04-02T01:39:10.619Z,0.00
2023-04-02T01:40:10.548Z,0.00
2023-04-02T01:41:10.528Z,0.00
2023-04-02T01:42:10.461Z,0.00
2023-04-02T01:43:10.431Z,0.00
2023-04-02T01:44:10.379Z,0.00
2023-04-02T01:45:10.341Z,0.00
2023-04-02T01:46:10.319Z,0.00
2023-04-02T01:47:10.294Z,0.00
2023-04-02T01:48:10.265Z,0.00
2023-04-02T01:49:10.178Z,0.00
2023-04-02T01:50:10.138Z,0.00
2023-04-02T01:51:10.099Z,0.00
2023-04-02T01:52:10.037Z,0.00
2023-04-02T01:53:10.005Z,0.00
2023-04-02T01:54:09.951Z,0.00
2023-04-02T01:55:09.924Z,0.00
2023-04-02T01:56:09.885Z,0.00
2023-04-02T01:57:09.888Z,0.00
2023-04-02T01:58:09.789Z,0.00
2023-04-02T01:59:09.748Z,0.00
2023-04-02T02:00:09.694Z,0.00
2023-04-02T02:01:09.729Z,0.00
2023-04-02T02:02:09.641Z,0.00
2023-04-02T02:03:09.619Z,0.00
2023-04-02T02:04:09.561Z,0.00
2023-04-02T02:05:09.484Z,0.00
2023-04-02T02:06:09.436Z,0.00
2023-04-02T02:07:09.428Z,0.00
2023-04-02T02:08:09.352Z,0.00
2023-04-02T02:09:09.325Z,0.00
2023-04-02T02:10:09.269Z,0.00
2023-04-02T02:11:09.231Z,0.00
2023-04-02T02:12:09.184Z,0.00
2023-04-02T02:13:09.166Z,0.00
2023-04-02T02:14:09.105Z,0.00
2023-04-02T02:15:09.060Z,0.00
2023-04-02T02:16:09.082Z,0.00
2023-04-02T02:17:08.993Z,0.00
2023-04-02T02:18:08.933Z,0.00
2023-04-02T02:19:08.897Z,0.00
2023-04-02T02:20:08.847Z,0.00
2023-04-02T02:21:08.836Z,0.00
2023-04-02T02:22:08.772Z,0.00
2023-04-02T02:23:08.734Z,0.00
2023-04-02T02:24:08.673Z,0.00
2023-04-02T02:25:08.635Z,0.00
2023-04-02T02:26:08.594Z,0.00
2023-04-02T02:27:08.547Z,0.00
2023-04-02T02:28:08.541Z,0.00
2023-04-02T02:29:08.492Z,0.00
2023-04-02T02:30:08.423Z,0.00
2023-04-02T02:31:08.376Z,0.00
2023-04-02T02:32:08.405Z,0.00
2023-04-02T02:33:08.291Z,0.00
2023-04-02T02:34:08.270Z,0.00
2023-04-02T02:35:08.218Z,0.00
2023-04-02T02:36:08.201Z,0.00
2023-04-02T02:37:08.126Z,0.00
2023-04-02T02:38:08.079Z,0.00
2023-04-02T02:39:08.045Z,0.00
2023-04-02T02:40:08.004Z,0.00
2023-04-02T02:41:07.953Z,0.00
2023-04-02T02:42:07.918Z,0.00
2023-04-02T02:43:07.873Z,0.00
2023-04-02T02:44:07.841Z,0.00
2023-04-02T02:45:07.783Z,0.00
2023-04-02T02:46:07.764Z,0.00
2023-04-02T02:47:07.705Z,0.00
2023-04-02T02:48:07.680Z,0.00
2023-04-02T02:49:07.635Z,0.00
2023-04-02T02:50:07.563Z,0.00
2023-04-02T02:51:07.529Z,0.00
2023-04-02T02:52:07.489Z,0.00
2023-04-02T02:53:07.438Z,0.00
2023-04-02T02:54:07.419Z,0.00
2023-04-02T02:55:07.348Z,0.00
2023-04-02T02:56:07.312Z,0.00
2023-04-02T02:57:07.320Z,0.00
2023-04-02T02:58:07.226Z,0.00
2023-04-02T02:59:07.175Z,0.00
2023-04-02T03:00:07.140Z,0.00
2023-04-02T03:01:07.115Z,0.00
2023-04-02T03:02:07.215Z,0.00
2023-04-02T03:03:07.172Z,0.00
2023-04-02T03:04:07.088Z,0.00
2023-04-02T03:05:06.927Z,0.00
2023-04-02T03:06:06.893Z,0.00
2023-04-02T03:07:06.837Z,0.00
2023-04-02T03:08:06.791Z,0.00
2023-04-02T03:09:06.757Z,0.00
2023-04-02T03:10:06.711Z,0.00
2023-04-02T03:11:06.675Z,0.00
2023-04-02T03:12:06.634Z,0.00
2023-04-02T03:13:06.576Z,0.00
2023-04-02T03:14:06.787Z,0.00
2023-04-02T03:15:06.516Z,0.00
2023-04-02T03:16:06.509Z,0.00
2023-04-02T03:17:06.404Z,0.00
2023-04-02T03:18:06.380Z,0.00
2023-04-02T03:19:06.332Z,0.00
2023-04-02T03:20:06.307Z,0.00
2023-04-02T03:21:06.242Z,0.00
2023-04-02T03:22:06.190Z,0.00
2023-04-02T03:23:06.143Z,0.00
2023-04-02T03:24:06.370Z,0.00
2023-04-02T03:25:06.066Z,0.00
2023-04-02T03:26:06.034Z,0.00
2023-04-02T03:27:05.974Z,0.00
2023-04-02T03:28:05.943Z,0.00
2023-04-02T03:29:05.903Z,0.00
2023-04-02T03:30:05.859Z,0.00
2023-04-02T03:31:05.843Z,0.00
2023-04-02T03:32:05.801Z,0.00
2023-04-02T03:33:05.792Z,0.00
2023-04-02T03:34:05.692Z,0.00
2023-04-02T03:35:05.640Z,0.00
2023-04-02T03:36:05.659Z,0.00
2023-04-02T03:37:05.551Z,0.00
2023-04-02T03:38:05.507Z,0.00
2023-04-02T03:39:05.460Z,0.00
2023-04-02T03:40:05.421Z,0.00
2023-04-02T03:41:05.419Z,0.00
2023-04-02T03:42:05.378Z,0.00
2023-04-02T03:43:05.296Z,0.00
2023-04-02T03:44:05.252Z,0.00
2023-04-02T03:45:05.210Z,0.00
2023-04-02T03:46:05.210Z,0.00
2023-04-02T03:47:05.124Z,0.00
2023-04-02T03:48:05.124Z,0.00
2023-04-02T03:49:05.037Z,0.00
2023-04-02T03:50:05.022Z,0.00
2023-04-02T03:51:04.948Z,0.00
2023-04-02T03:52:04.936Z,0.00
2023-04-02T03:53:04.859Z,0.00
2023-04-02T03:54:04.830Z,0.00
2023-04-02T03:55:04.803Z,0.00
2023-04-02T03:56:04.740Z,0.00
2023-04-02T03:57:04.709Z,0.00
2023-04-02T03:58:04.669Z,0.00
2023-04-02T03:59:04.610Z,0.00
2023-04-02T04:00:04.564Z,0.00
2023-04-02T04:01:04.531Z,0.00
2023-04-02T04:02:04.521Z,0.00
2023-04-02T04:03:04.461Z,0.00
2023-04-02T04:04:04.419Z,0.00
2023-04-02T04:05:04.351Z,0.00
2023-04-02T04:06:04.309Z,0.00
2023-04-02T04:07:04.267Z,0.00
2023-04-02T04:08:04.226Z,0.00
2023-04-02T04:09:04.172Z,0.00
2023-04-02T04:10:04.137Z,0.00
2023-04-02T04:11:04.146Z,0.00
2023-04-02T04:12:04.050Z,0.00
2023-04-02T04:13:04.001Z,0.00
2023-04-02T04:14:03.955Z,0.00
2023-04-02T04:15:03.917Z,0.00
2023-04-02T04:16:03.891Z,0.00
2023-04-02T04:17:03.863Z,0.00
2023-04-02T04:18:03.806Z,0.00
2023-04-02T04:19:03.741Z,0.00
2023-04-02T04:20:03.699Z,0.00
2023-04-02T04:21:03.659Z,0.00
2023-04-02T04:22:03.613Z,0.00
2023-04-02T04:23:03.569Z,0.00
2023-04-02T04:24:03.544Z,0.00
2023-04-02T04:25:03.479Z,0.00
2023-04-02T04:26:03.456Z,0.00
2023-04-02T04:27:03.395Z,0.00
2023-04-02T04:28:03.358Z,0.00
2023-04-02T04:29:03.312Z,0.00
2023-04-02T04:30:03.273Z,0.00
2023-04-02T04:31:03.231Z,0.00
2023-04-02T04:32:03.204Z,0.00
2023-04-02T04:33:03.199Z,0.00
2023-04-02T04:34:03.103Z,0.00
2023-04-02T04:35:03.055Z,0.00
2023-04-02T04:36:03.048Z,0.00
2023-04-02T04:37:02.959Z,0.00
2023-04-02T04:38:02.950Z,0.00
2023-04-02T04:39:02.876Z,0.00
2023-04-02T04:40:02.835Z,0.00
2023-04-02T04:41:02.784Z,0.00
2023-04-02T04:42:02.776Z,0.00
2023-04-02T04:43:02.713Z,0.00
2023-04-02T04:44:02.664Z,0.00
2023-04-02T04:45:02.629Z,0.00
2023-04-02T04:46:02.614Z,0.00
2023-04-02T04:47:02.537Z,0.00
2023-04-02T04:48:02.539Z,0.00
2023-04-02T04:49:02.807Z,0.00
2023-04-02T04:50:02.408Z,4.00
2023-04-02T04:51:02.362Z,4.00
2023-04-02T04:52:02.316Z,8.00
2023-04-02T04:53:02.278Z,8.00
2023-04-02T04:54:02.276Z,8.00
2023-04-02T04:55:02.183Z,8.00
2023-04-02T04:56:12.570Z,8.00
2023-04-02T04:57:02.180Z,12.00
2023-04-02T04:58:02.066Z,12.00
2023-04-02T04:59:02.030Z,12.00
2023-04-02T05:00:01.982Z,16.00
2023-04-02T05:01:02.017Z,16.00
2023-04-02T05:02:01.899Z,20.00
2023-04-02T05:03:01.891Z,20.00
2023-04-02T05:04:01.802Z,24.00
2023-04-02T05:05:01.776Z,24.00
2023-04-02T05:06:01.706Z,28.00
2023-04-02T05:07:01.682Z,32.00
2023-04-02T05:08:01.627Z,36.00
2023-04-02T05:09:01.597Z,40.00
2023-04-02T05:10:01.602Z,44.00
2023-04-02T05:11:01.495Z,48.00
2023-04-02T05:12:01.462Z,52.00
2023-04-02T05:13:01.410Z,64.00
2023-04-02T05:14:01.360Z,64.00
2023-04-02T05:15:01.332Z,72.00
2023-04-02T05:16:01.553Z,84.00
2023-04-02T05:17:01.232Z,92.00
2023-04-02T05:18:01.227Z,100.00
2023-04-02T05:19:01.152Z,112.00
2023-04-02T05:20:01.108Z,120.00
2023-04-02T05:21:01.077Z,124.00
2023-04-02T05:22:01.022Z,124.00
2023-04-02T05:23:00.988Z,132.00
2023-04-02T05:24:00.928Z,144.00
2023-04-02T05:25:00.884Z,160.00
2023-04-02T05:26:00.854Z,180.00
2023-04-02T05:27:00.806Z,176.00
2023-04-02T05:28:00.767Z,188.00
2023-04-02T05:29:00.712Z,184.00
2023-04-02T05:30:00.693Z,180.00
2023-04-02T05:31:00.642Z,172.00
2023-04-02T05:32:00.577Z,172.00
2023-04-02T05:33:00.618Z,176.00
2023-04-02T05:34:00.508Z,168.00
2023-04-02T05:35:00.452Z,176.00
2023-04-02T05:36:00.459Z,176.00
2023-04-02T05:37:00.369Z,176.00
2023-04-02T05:38:00.338Z,184.00
2023-04-02T05:39:00.281Z,204.00
2023-04-02T05:40:00.253Z,212.00
2023-04-02T05:41:00.208Z,248.00
2023-04-02T05:42:00.153Z,248.00
2023-04-02T05:43:00.142Z,256.00
2023-04-02T05:44:00.082Z,268.00
2023-04-02T05:45:00.033Z,280.00
2023-04-02T05:45:59.982Z,292.00
2023-04-02T05:46:59.962Z,312.00
2023-04-02T05:48:00.020Z,316.00
2023-04-02T05:48:59.845Z,324.00
2023-04-02T05:49:59.814Z,324.00
2023-04-02T05:50:59.767Z,356.00
2023-04-02T05:51:59.734Z,344.00
2023-04-02T05:52:59.671Z,400.00
2023-04-02T05:53:59.641Z,392.00
2023-04-02T05:54:59.590Z,384.00
2023-04-02T05:55:59.570Z,368.00
2023-04-02T05:56:59.522Z,404.00
2023-04-02T05:58:21.275Z,432.00
2023-04-02T05:58:59.537Z,428.00
2023-04-02T05:59:59.383Z,468.00
2023-04-02T06:00:59.327Z,516.00
2023-04-02T06:01:59.345Z,504.00
2023-04-02T06:02:59.310Z,548.00
2023-04-02T06:03:59.227Z,536.00
2023-04-02T06:04:59.147Z,552.00
2023-04-02T06:05:59.124Z,560.00
2023-04-02T06:06:59.076Z,584.00
2023-04-02T06:07:59.019Z,624.00
2023-04-02T06:08:58.974Z,596.00
2023-04-02T06:09:58.938Z,596.00
2023-04-02T06:10:58.884Z,628.00
2023-04-02T06:11:58.847Z,616.00
2023-04-02T06:12:58.815Z,584.00
2023-04-02T06:13:58.760Z,572.00
2023-04-02T06:14:58.724Z,600.00
2023-04-02T06:15:58.675Z,640.00
2023-04-02T06:16:58.757Z,640.00
2023-04-02T06:17:58.641Z,732.00
2023-04-02T06:18:58.552Z,784.00
2023-04-02T06:19:58.495Z,888.00
2023-04-02T06:20:58.448Z,972.00
2023-04-02T06:21:58.410Z,992.00
2023-04-02T06:22:58.362Z,1000.00
2023-04-02T06:23:58.337Z,992.00
2023-04-02T06:24:58.284Z,1012.00
2023-04-02T06:25:58.237Z,1040.00
2023-04-02T06:26:58.189Z,968.00
2023-04-02T06:27:58.148Z,992.00
2023-04-02T06:28:58.125Z,1004.00
2023-04-02T06:29:58.070Z,992.00
2023-04-02T06:30:58.049Z,1024.00
2023-04-02T06:31:58.014Z,1060.00
2023-04-02T06:32:57.997Z,1112.00
2023-04-02T06:33:57.915Z,1080.00
2023-04-02T06:34:57.851Z,1124.00
2023-04-02T06:35:57.825Z,1092.00
2023-04-02T06:36:57.762Z,1128.00
2023-04-02T06:37:57.729Z,1192.00
2023-04-02T06:38:57.676Z,1304.00
2023-04-02T06:39:57.641Z,1188.00
2023-04-02T06:40:58.910Z,1156.00
2023-04-02T06:41:57.545Z,1124.00
2023-04-02T06:42:57.502Z,1116.00
2023-04-02T06:43:57.454Z,1120.00
2023-04-02T06:44:57.413Z,1152.00
2023-04-02T06:45:57.401Z,1236.00
2023-04-02T06:46:57.329Z,1180.00
2023-04-02T06:47:57.314Z,1212.00
2023-04-02T06:49:06.387Z,1280.00
2023-04-02T06:49:57.215Z,1324.00
2023-04-02T06:50:57.161Z,1364.00
2023-04-02T06:51:57.107Z,1368.00
2023-04-02T06:52:57.063Z,1432.00
2023-04-02T06:53:57.047Z,1468.00
2023-04-02T06:54:57.051Z,1488.00
2023-04-02T06:55:56.947Z,1472.00
2023-04-02T06:56:57.860Z,1556.00
2023-04-02T06:58:11.403Z,1556.00
2023-04-02T06:58:56.856Z,1584.00
2023-04-02T06:59:56.830Z,1600.00
2023-04-02T07:00:58.508Z,1656.00
2023-04-02T07:01:57.470Z,1772.00
2023-04-02T07:02:56.694Z,1848.00
2023-04-02T07:03:56.577Z,1820.00
2023-04-02T07:04:56.706Z,1816.00
2023-04-02T07:05:56.503Z,1836.00
2023-04-02T07:06:56.451Z,1860.00
2023-04-02T07:07:56.421Z,1820.00
2023-04-02T07:08:56.359Z,1808.00
2023-04-02T07:09:56.319Z,1908.00
2023-04-02T07:10:56.290Z,1856.00
2023-04-02T07:11:56.239Z,1836.00
2023-04-02T07:12:56.195Z,1760.00
2023-04-02T07:13:56.143Z,1768.00
2023-04-02T07:14:56.105Z,1764.00
2023-04-02T07:15:56.078Z,1920.00
2023-04-02T07:16:56.018Z,2032.00
2023-04-02T07:17:56.135Z,1948.00
2023-04-02T07:18:55.931Z,2048.00
2023-04-02T07:19:55.878Z,2168.00
2023-04-02T07:20:55.839Z,2332.00
2023-04-02T07:21:55.789Z,2512.00
2023-04-02T07:22:55.758Z,2472.00
2023-04-02T07:23:55.722Z,2528.00
2023-04-02T07:24:55.693Z,2532.00
2023-04-02T07:25:55.672Z,2696.00
2023-04-02T07:26:55.585Z,2928.00
2023-04-02T07:27:55.540Z,3256.00
2023-04-02T07:28:55.529Z,3184.00
2023-04-02T07:29:55.448Z,3368.00
2023-04-02T07:30:55.415Z,3572.00
2023-04-02T07:31:55.478Z,3584.00
2023-04-02T07:32:55.398Z,3780.00
2023-04-02T07:33:55.323Z,3376.00
2023-04-02T07:34:55.246Z,3488.00
2023-04-02T07:35:55.268Z,3464.00
2023-04-02T07:36:55.159Z,3416.00
2023-04-02T07:37:55.122Z,3304.00
2023-04-02T07:38:55.071Z,3392.00
2023-04-02T07:39:55.144Z,3504.00
2023-04-02T07:40:55.004Z,3680.00
2023-04-02T07:41:54.945Z,3684.00
2023-04-02T07:42:54.896Z,3636.00
2023-04-02T07:43:54.854Z,3732.00
2023-04-02T07:44:54.798Z,3972.00
2023-04-02T07:45:54.775Z,4024.00
2023-04-02T07:46:54.787Z,3952.00
2023-04-02T07:47:54.701Z,3896.00
2023-04-02T07:48:54.673Z,3724.00
2023-04-02T07:49:54.593Z,3824.00
2023-04-02T07:50:54.542Z,3612.00
2023-04-02T07:51:54.523Z,3492.00
2023-04-02T07:52:54.469Z,3468.00
2023-04-02T07:53:54.422Z,3664.00
2023-04-02T07:54:54.406Z,3396.00
2023-04-02T07:55:54.333Z,3420.00
2023-04-02T07:56:54.384Z,3524.00
2023-04-02T07:57:54.243Z,3540.00
2023-04-02T07:58:54.210Z,3828.00
2023-04-02T07:59:54.145Z,4216.00
2023-04-02T08:00:54.126Z,4008.00
2023-04-02T08:01:54.112Z,4348.00
2023-04-02T08:02:54.136Z,3956.00
2023-04-02T08:03:54.550Z,4004.00
2023-04-02T08:04:53.938Z,5876.00
2023-04-02T08:05:53.886Z,8320.00
2023-04-02T08:06:53.885Z,7252.00
2023-04-02T08:07:53.827Z,6984.00
2023-04-02T08:08:53.773Z,5672.00
2023-04-02T08:09:53.737Z,4752.00
2023-04-02T08:10:53.696Z,4876.00
2023-04-02T08:11:53.628Z,5016.00
2023-04-02T08:12:53.594Z,5756.00
2023-04-02T08:13:53.550Z,5540.00
2023-04-02T08:14:54.388Z,6012.00
2023-04-02T08:15:53.473Z,5984.00
2023-04-02T08:16:53.492Z,6252.00
2023-04-02T08:17:53.442Z,7100.00
2023-04-02T08:18:53.337Z,6844.00
2023-04-02T08:19:55.045Z,6576.00
2023-04-02T08:20:53.260Z,6576.00
2023-04-02T08:21:53.202Z,6528.00
2023-04-02T08:22:53.168Z,6320.00
2023-04-02T08:23:53.145Z,5768.00
2023-04-02T08:24:53.081Z,5336.00
2023-04-02T08:25:53.049Z,5580.00
2023-04-02T08:26:53.006Z,5532.00
2023-04-02T08:27:52.965Z,5896.00
2023-04-02T08:28:52.929Z,6140.00
2023-04-02T08:29:52.881Z,6348.00
2023-04-02T08:30:52.892Z,6500.00
2023-04-02T08:31:52.775Z,6640.00
2023-04-02T08:32:52.788Z,6824.00
2023-04-02T08:33:52.690Z,7004.00
2023-04-02T08:34:52.660Z,6740.00
2023-04-02T08:35:52.648Z,7044.00
2023-04-02T08:36:52.568Z,6880.00
2023-04-02T08:37:52.540Z,7212.00
2023-04-02T08:38:52.480Z,7860.00
2023-04-02T08:39:52.452Z,7748.00
2023-04-02T08:40:52.397Z,6992.00
2023-04-02T08:41:52.390Z,7124.00
2023-04-02T08:42:52.317Z,7872.00
2023-04-02T08:43:52.268Z,8004.00
2023-04-02T08:44:52.298Z,8152.00
2023-04-02T08:45:52.393Z,7208.00
2023-04-02T08:46:52.143Z,6920.00
2023-04-02T08:47:52.132Z,8884.00
2023-04-02T08:48:52.057Z,8168.00
2023-04-02T08:49:52.008Z,8464.00
2023-04-02T08:50:52.003Z,9612.00
2023-04-02T08:51:51.919Z,9512.00
2023-04-02T08:52:51.899Z,9640.00
2023-04-02T08:53:51.839Z,10696.00
2023-04-02T08:54:52.339Z,10968.00
2023-04-02T08:55:51.748Z,10372.00
2023-04-02T08:56:51.765Z,11196.00
2023-04-02T08:57:51.664Z,12192.00
2023-04-02T08:58:51.643Z,11644.00
2023-04-02T08:59:51.579Z,13144.00
2023-04-02T09:00:51.554Z,13280.00
2023-04-02T09:01:51.535Z,13016.00
2023-04-02T09:02:51.485Z,11492.00
2023-04-02T09:03:51.425Z,10632.00
2023-04-02T09:04:51.436Z,10048.00
2023-04-02T09:05:51.354Z,10268.00
2023-04-02T09:06:51.289Z,10864.00
2023-04-02T09:07:51.240Z,9836.00
2023-04-02T09:08:51.209Z,10068.00
2023-04-02T09:09:51.182Z,10684.00
2023-04-02T09:10:51.134Z,10304.00
2023-04-02T09:11:51.088Z,8916.00
2023-04-02T09:12:51.040Z,9836.00
2023-04-02T09:13:50.994Z,10456.00
2023-04-02T09:14:50.947Z,10264.00
2023-04-02T09:15:50.936Z,10672.00
2023-04-02T09:16:50.888Z,11080.00
2023-04-02T09:17:54.541Z,11320.00
2023-04-02T09:18:50.782Z,10852.00
2023-04-02T09:19:50.748Z,10232.00
2023-04-02T09:20:50.719Z,10164.00
2023-04-02T09:21:50.682Z,12548.00
2023-04-02T09:22:50.620Z,13212.00
2023-04-02T09:23:50.592Z,12692.00
2023-04-02T09:24:50.560Z,12860.00
2023-04-02T09:26:02.995Z,13784.00
2023-04-02T09:26:50.470Z,14560.00
2023-04-02T09:27:50.407Z,15568.00
2023-04-02T09:28:50.377Z,17952.00
2023-04-02T09:29:50.345Z,18080.00
2023-04-02T09:30:50.318Z,27104.00
2023-04-02T09:31:50.269Z,19968.00
2023-04-02T09:32:55.235Z,18976.00
2023-04-02T09:33:50.164Z,20352.00
2023-04-02T09:34:54.332Z,21536.00
2023-04-02T09:35:50.129Z,20480.00
2023-04-02T09:36:50.045Z,19872.00
2023-04-02T09:37:49.998Z,24352.00
2023-04-02T09:38:49.958Z,22976.00
2023-04-02T09:39:49.922Z,20160.00
2023-04-02T09:40:49.918Z,21632.00
2023-04-02T09:41:59.105Z,21120.00
2023-04-02T09:42:49.805Z,16188.00
2023-04-02T09:43:49.761Z,15380.00
2023-04-02T09:44:49.728Z,14364.00
2023-04-02T09:45:49.688Z,14544.00
2023-04-02T09:46:49.654Z,14332.00
2023-04-02T09:47:49.641Z,14804.00
2023-04-02T09:48:49.565Z,15820.00
2023-04-02T09:49:49.521Z,15828.00
2023-04-02T09:50:49.487Z,15376.00
2023-04-02T09:51:49.436Z,16536.00
2023-04-02T09:52:49.412Z,17536.00
2023-04-02T09:53:49.463Z,19456.00
2023-04-02T09:54:49.318Z,19808.00
2023-04-02T09:55:49.276Z,25312.00
2023-04-02T09:56:49.270Z,23552.00
2023-04-02T09:57:49.194Z,21920.00
2023-04-02T09:58:49.168Z,22048.00
2023-04-02T09:59:49.164Z,20128.00
2023-04-02T10:00:49.106Z,19712.00
2023-04-02T10:01:49.037Z,20352.00
2023-04-02T10:02:49.031Z,18752.00
2023-04-02T10:03:48.972Z,17248.00
2023-04-02T10:04:48.968Z,16572.00
2023-04-02T10:05:48.895Z,16404.00
2023-04-02T10:06:48.839Z,17760.00
2023-04-02T10:07:48.815Z,19520.00
2023-04-02T10:08:48.796Z,20128.00
2023-04-02T10:09:48.792Z,18400.00
2023-04-02T10:10:48.690Z,17760.00
2023-04-02T10:11:48.653Z,20128.00
2023-04-02T10:12:48.617Z,21536.00
2023-04-02T10:13:48.566Z,18880.00
2023-04-02T10:14:48.565Z,18848.00
2023-04-02T10:15:48.483Z,21152.00
2023-04-02T10:16:48.506Z,20128.00
2023-04-02T10:17:48.485Z,21312.00
2023-04-02T10:18:48.376Z,21504.00
2023-04-02T10:19:48.332Z,21920.00
2023-04-02T10:20:51.374Z,29632.00
2023-04-02T10:21:48.255Z,26496.00
2023-04-02T10:22:48.309Z,22592.00
2023-04-02T10:23:48.208Z,23136.00
2023-04-02T10:24:48.172Z,25536.00
2023-04-02T10:25:48.141Z,27648.00
2023-04-02T10:26:48.073Z,20032.00
2023-04-02T10:27:48.028Z,23904.00
2023-04-02T10:28:47.991Z,26208.00
2023-04-02T10:29:47.956Z,18080.00
2023-04-02T10:30:47.964Z,18752.00
2023-04-02T10:31:47.880Z,17888.00
2023-04-02T10:32:47.932Z,16604.00
2023-04-02T10:33:47.808Z,15936.00
2023-04-02T10:34:47.774Z,16584.00
2023-04-02T10:35:47.761Z,15144.00
2023-04-02T10:36:47.712Z,15520.00
2023-04-02T10:37:47.662Z,16644.00
2023-04-02T10:38:47.630Z,17152.00
2023-04-02T10:39:47.612Z,16896.00
2023-04-02T10:40:47.585Z,20704.00
2023-04-02T10:41:47.526Z,23936.00
2023-04-02T10:42:47.496Z,19936.00
2023-04-02T10:43:47.497Z,20896.00
2023-04-02T10:44:47.401Z,17440.00
2023-04-02T10:45:47.375Z,18432.00
2023-04-02T10:46:47.342Z,17280.00
2023-04-02T10:47:47.308Z,17536.00
2023-04-02T10:48:47.263Z,16992.00
2023-04-02T10:49:47.239Z,16024.00
2023-04-02T10:50:47.179Z,15848.00
2023-04-02T10:51:47.140Z,18432.00
2023-04-02T10:52:47.124Z,17440.00
2023-04-02T10:53:47.061Z,21728.00
2023-04-02T10:54:47.074Z,21440.00
2023-04-02T10:55:46.998Z,23328.00
2023-04-02T10:56:51.201Z,30400.00
2023-04-02T10:57:46.941Z,24640.00
2023-04-02T10:58:46.894Z,27712.00
2023-04-02T10:59:46.844Z,21216.00
2023-04-02T11:00:46.828Z,21664.00
2023-04-02T11:01:46.794Z,22496.00
2023-04-02T11:02:46.814Z,21184.00
2023-04-02T11:03:46.798Z,20800.00
2023-04-02T11:04:46.661Z,21152.00
2023-04-02T11:05:46.653Z,21056.00
2023-04-02T11:06:46.585Z,29952.00
2023-04-02T11:07:46.548Z,23008.00
2023-04-02T11:08:46.512Z,22080.00
2023-04-02T11:09:46.477Z,18816.00
2023-04-02T11:10:46.444Z,18368.00
2023-04-02T11:11:46.420Z,17312.00
2023-04-02T11:12:46.378Z,16992.00
2023-04-02T11:13:46.332Z,17536.00
2023-04-02T11:14:46.294Z,18784.00
2023-04-02T11:15:46.272Z,17856.00
2023-04-02T11:16:46.311Z,19040.00
2023-04-02T11:17:46.244Z,19296.00
2023-04-02T11:18:46.161Z,19424.00
2023-04-02T11:19:46.124Z,18656.00
2023-04-02T11:20:46.073Z,17600.00
2023-04-02T11:21:57.911Z,17568.00
2023-04-02T11:22:46.073Z,17280.00
2023-04-02T11:23:45.963Z,17312.00
2023-04-02T11:24:45.936Z,17216.00
2023-04-02T11:25:45.919Z,17184.00
2023-04-02T11:26:45.844Z,16864.00
2023-04-02T11:27:45.810Z,16140.00
2023-04-02T11:28:45.780Z,16144.00
2023-04-02T11:29:45.768Z,15976.00
2023-04-02T11:30:45.693Z,15788.00
2023-04-02T11:31:45.713Z,14792.00
2023-04-02T11:32:45.636Z,13772.00
2023-04-02T11:33:47.376Z,13816.00
2023-04-02T11:34:46.295Z,13472.00
2023-04-02T11:35:45.577Z,14132.00
2023-04-02T11:36:45.463Z,16896.00
2023-04-02T11:37:45.420Z,15868.00
2023-04-02T11:38:45.404Z,16212.00
2023-04-02T11:39:45.351Z,16028.00
2023-04-02T11:40:45.322Z,16404.00
2023-04-02T11:41:45.276Z,16736.00
2023-04-02T11:42:45.238Z,17184.00
2023-04-02T11:43:45.191Z,16092.00
2023-04-02T11:44:45.152Z,15728.00
2023-04-02T11:45:52.985Z,16372.00
2023-04-02T11:46:45.109Z,17248.00
2023-04-02T11:47:45.066Z,18080.00
2023-04-02T11:48:45.026Z,17248.00
2023-04-02T11:49:44.959Z,16864.00
2023-04-02T11:50:44.953Z,16768.00
2023-04-02T11:51:44.889Z,17152.00
2023-04-02T11:52:44.858Z,17184.00
2023-04-02T11:53:44.812Z,17632.00
2023-04-02T11:54:44.792Z,17440.00
2023-04-02T11:55:44.749Z,17088.00
2023-04-02T11:56:44.689Z,18368.00
2023-04-02T11:57:44.659Z,17344.00
2023-04-02T11:58:44.629Z,17312.00
2023-04-02T11:59:44.585Z,17760.00
2023-04-02T12:00:44.533Z,18368.00
2023-04-02T12:01:44.537Z,18112.00
2023-04-02T12:02:44.557Z,15180.00
2023-04-02T12:03:44.432Z,16144.00
2023-04-02T12:04:44.430Z,15508.00
2023-04-02T12:05:44.410Z,17856.00
2023-04-02T12:06:44.307Z,16704.00
2023-04-02T12:07:44.265Z,16196.00
2023-04-02T12:08:54.679Z,23712.00
2023-04-02T12:09:44.190Z,19040.00
2023-04-02T12:10:44.144Z,17920.00
2023-04-02T12:11:44.120Z,19552.00
2023-04-02T12:12:44.067Z,24064.00
2023-04-02T12:13:44.037Z,16320.00
2023-04-02T12:14:43.999Z,23200.00
2023-04-02T12:15:43.977Z,21408.00
2023-04-02T12:16:43.998Z,24896.00
2023-04-02T12:17:43.916Z,17184.00
2023-04-02T12:18:43.838Z,19744.00
2023-04-02T12:19:43.798Z,15592.00
2023-04-02T12:20:43.758Z,18336.00
2023-04-02T12:21:43.760Z,14500.00
2023-04-02T12:22:43.680Z,13484.00
2023-04-02T12:23:43.650Z,12956.00
2023-04-02T12:24:43.631Z,13344.00
2023-04-02T12:25:43.583Z,13428.00
2023-04-02T12:26:43.544Z,12284.00
2023-04-02T12:27:43.517Z,14004.00
2023-04-02T12:28:43.457Z,18112.00